sensor_id;sensor_type;location;lat;lon;timestamp;pressure;altitude;pressure_sealevel;temperature;humidity
58662;BME280;44432;49.786;22.760;2023-07-13T00:00:31;98959.45;;;19.24;75.45
58662;BME280;44432;49.786;22.760;2023-07-13T00:03:22;98962.73;;;19.21;75.62
58662;BME280;44432;49.786;22.760;2023-07-13T00:06:01;98969.17;;;19.18;75.62
58662;BME280;44432;49.786;22.760;2023-07-13T00:08:33;98974.39;;;19.14;75.74
58662;BME280;44432;49.786;22.760;2023-07-13T00:11:04;98974.60;;;19.14;75.78
58662;BME280;44432;49.786;22.760;2023-07-13T00:13:36;98976.16;;;19.13;75.96
58662;BME280;44432;49.786;22.760;2023-07-13T00:16:08;98985.64;;;19.11;76.10
58662;BME280;44432;49.786;22.760;2023-07-13T00:18:39;98985.49;;;19.08;76.17
58662;BME280;44432;49.786;22.760;2023-07-13T00:21:09;98984.77;;;19.04;76.37
58662;BME280;44432;49.786;22.760;2023-07-13T00:23:41;98977.77;;;19.00;76.49
58662;BME280;44432;49.786;22.760;2023-07-13T00:26:12;98975.17;;;18.95;76.65
58662;BME280;44432;49.786;22.760;2023-07-13T00:28:43;98968.61;;;18.91;76.78
58662;BME280;44432;49.786;22.760;2023-07-13T00:31:14;98967.60;;;18.87;76.97
58662;BME280;44432;49.786;22.760;2023-07-13T00:33:45;98962.60;;;18.82;77.09
58662;BME280;44432;49.786;22.760;2023-07-13T00:36:16;98958.50;;;18.77;77.19
58662;BME280;44432;49.786;22.760;2023-07-13T00:38:46;98954.52;;;18.72;77.30
58662;BME280;44432;49.786;22.760;2023-07-13T00:41:17;98953.11;;;18.68;77.47
58662;BME280;44432;49.786;22.760;2023-07-13T00:43:48;98949.81;;;18.62;77.70
58662;BME280;44432;49.786;22.760;2023-07-13T00:46:24;98944.07;;;18.58;77.87
58662;BME280;44432;49.786;22.760;2023-07-13T00:48:57;98933.65;;;18.55;78.03
58662;BME280;44432;49.786;22.760;2023-07-13T00:51:33;98928.69;;;18.53;78.21
58662;BME280;44432;49.786;22.760;2023-07-13T00:54:07;98926.66;;;18.52;78.35
58662;BME280;44432;49.786;22.760;2023-07-13T00:56:40;98923.99;;;18.51;78.53
58662;BME280;44432;49.786;22.760;2023-07-13T00:59:14;98919.40;;;18.50;78.63
58662;BME280;44432;49.786;22.760;2023-07-13T01:01:46;98922.13;;;18.48;78.79
58662;BME280;44432;49.786;22.760;2023-07-13T01:04:18;98923.79;;;18.46;78.82
58662;BME280;44432;49.786;22.760;2023-07-13T01:06:49;98926.46;;;18.47;79.03
58662;BME280;44432;49.786;22.760;2023-07-13T01:09:20;98923.05;;;18.46;79.01
58662;BME280;44432;49.786;22.760;2023-07-13T01:11:51;98921.55;;;18.47;79.12
58662;BME280;44432;49.786;22.760;2023-07-13T01:14:21;98922.88;;;18.47;79.15
58662;BME280;44432;49.786;22.760;2023-07-13T01:16:52;98922.45;;;18.47;79.25
58662;BME280;44432;49.786;22.760;2023-07-13T01:19:32;98918.66;;;18.48;79.37
58662;BME280;44432;49.786;22.760;2023-07-13T01:22:06;98916.58;;;18.48;79.40
58662;BME280;44432;49.786;22.760;2023-07-13T01:24:38;98911.40;;;18.46;79.48
58662;BME280;44432;49.786;22.760;2023-07-13T01:27:10;98909.10;;;18.45;79.60
58662;BME280;44432;49.786;22.760;2023-07-13T01:29:43;98913.27;;;18.45;79.60
58662;BME280;44432;49.786;22.760;2023-07-13T01:32:18;98913.06;;;18.43;79.65
58662;BME280;44432;49.786;22.760;2023-07-13T01:34:53;98921.14;;;18.42;79.68
58662;BME280;44432;49.786;22.760;2023-07-13T01:37:24;98924.13;;;18.41;79.66
58662;BME280;44432;49.786;22.760;2023-07-13T01:39:56;98921.08;;;18.40;79.66
58662;BME280;44432;49.786;22.760;2023-07-13T01:42:26;98922.27;;;18.39;79.65
58662;BME280;44432;49.786;22.760;2023-07-13T01:44:58;98919.80;;;18.39;79.80
58662;BME280;44432;49.786;22.760;2023-07-13T01:47:29;98914.45;;;18.39;79.80
58662;BME280;44432;49.786;22.760;2023-07-13T01:50:00;98911.15;;;18.39;79.86
58662;BME280;44432;49.786;22.760;2023-07-13T01:52:30;98915.91;;;18.38;79.78
58662;BME280;44432;49.786;22.760;2023-07-13T01:55:01;98925.42;;;18.36;79.94
58662;BME280;44432;49.786;22.760;2023-07-13T01:57:31;98927.83;;;18.36;80.00
58662;BME280;44432;49.786;22.760;2023-07-13T02:00:05;98927.95;;;18.34;80.12
58662;BME280;44432;49.786;22.760;2023-07-13T02:02:36;98919.98;;;18.32;80.19
58662;BME280;44432;49.786;22.760;2023-07-13T02:05:08;98916.52;;;18.30;80.37
58662;BME280;44432;49.786;22.760;2023-07-13T02:07:39;98919.45;;;18.31;80.41
58662;BME280;44432;49.786;22.760;2023-07-13T02:10:11;98920.30;;;18.33;80.50
58662;BME280;44432;49.786;22.760;2023-07-13T02:12:43;98924.15;;;18.33;80.54
58662;BME280;44432;49.786;22.760;2023-07-13T02:15:14;98932.39;;;18.32;80.50
58662;BME280;44432;49.786;22.760;2023-07-13T02:17:45;98929.77;;;18.29;80.52
58662;BME280;44432;49.786;22.760;2023-07-13T02:20:15;98938.45;;;18.26;80.54
58662;BME280;44432;49.786;22.760;2023-07-13T02:22:46;98945.08;;;18.21;80.65
58662;BME280;44432;49.786;22.760;2023-07-13T02:25:17;98947.96;;;18.19;80.83
58662;BME280;44432;49.786;22.760;2023-07-13T02:27:48;98955.39;;;18.19;80.97
58662;BME280;44432;49.786;22.760;2023-07-13T02:30:18;98961.74;;;18.19;81.06
58662;BME280;44432;49.786;22.760;2023-07-13T02:32:50;98963.57;;;18.17;81.23
58662;BME280;44432;49.786;22.760;2023-07-13T02:35:20;98963.73;;;18.18;81.29
58662;BME280;44432;49.786;22.760;2023-07-13T02:37:51;98960.36;;;18.19;81.32
58662;BME280;44432;49.786;22.760;2023-07-13T02:40:22;98958.11;;;18.21;81.42
58662;BME280;44432;49.786;22.760;2023-07-13T02:42:52;98970.08;;;18.24;81.49
58662;BME280;44432;49.786;22.760;2023-07-13T02:45:23;98976.48;;;18.27;81.50
58662;BME280;44432;49.786;22.760;2023-07-13T02:47:54;98990.16;;;18.32;81.42
58662;BME280;44432;49.786;22.760;2023-07-13T02:50:24;98997.39;;;18.33;81.41
58662;BME280;44432;49.786;22.760;2023-07-13T02:52:55;98995.66;;;18.36;81.45
58662;BME280;44432;49.786;22.760;2023-07-13T02:55:26;98987.85;;;18.39;81.47
58662;BME280;44432;49.786;22.760;2023-07-13T02:57:56;98980.85;;;18.43;81.50
58662;BME280;44432;49.786;22.760;2023-07-13T03:00:27;98968.86;;;18.48;81.43
58662;BME280;44432;49.786;22.760;2023-07-13T03:02:58;98958.42;;;18.52;81.23
58662;BME280;44432;49.786;22.760;2023-07-13T03:05:29;98952.96;;;18.54;81.18
58662;BME280;44432;49.786;22.760;2023-07-13T03:08:00;98953.21;;;18.56;81.15
58662;BME280;44432;49.786;22.760;2023-07-13T03:10:30;98955.52;;;18.60;81.10
58662;BME280;44432;49.786;22.760;2023-07-13T03:13:01;98960.23;;;18.65;81.16
58662;BME280;44432;49.786;22.760;2023-07-13T03:15:32;98957.92;;;18.69;81.14
58662;BME280;44432;49.786;22.760;2023-07-13T03:18:03;98962.86;;;18.74;81.11
58662;BME280;44432;49.786;22.760;2023-07-13T03:20:35;98965.55;;;18.80;81.17
58662;BME280;44432;49.786;22.760;2023-07-13T03:23:05;98968.31;;;18.84;81.08
58662;BME280;44432;49.786;22.760;2023-07-13T03:25:36;98971.52;;;18.87;81.10
58662;BME280;44432;49.786;22.760;2023-07-13T03:28:07;98977.00;;;18.91;81.05
58662;BME280;44432;49.786;22.760;2023-07-13T03:30:37;98987.85;;;18.95;80.87
58662;BME280;44432;49.786;22.760;2023-07-13T03:33:08;98988.05;;;18.99;80.71
58662;BME280;44432;49.786;22.760;2023-07-13T03:35:41;98989.16;;;19.03;80.61
58662;BME280;44432;49.786;22.760;2023-07-13T03:38:12;98993.05;;;19.06;80.51
58662;BME280;44432;49.786;22.760;2023-07-13T03:40:42;98993.73;;;19.09;80.49
58662;BME280;44432;49.786;22.760;2023-07-13T03:43:13;98989.11;;;19.13;80.52
58662;BME280;44432;49.786;22.760;2023-07-13T03:45:44;98989.19;;;19.19;80.45
58662;BME280;44432;49.786;22.760;2023-07-13T03:48:14;98987.55;;;19.24;80.41
58662;BME280;44432;49.786;22.760;2023-07-13T03:50:46;98981.30;;;19.32;80.44
58662;BME280;44432;49.786;22.760;2023-07-13T03:53:17;98970.56;;;19.39;80.47
58662;BME280;44432;49.786;22.760;2023-07-13T03:55:48;98966.17;;;19.45;80.33
58662;BME280;44432;49.786;22.760;2023-07-13T03:58:31;98966.85;;;19.51;80.42
58662;BME280;44432;49.786;22.760;2023-07-13T04:01:04;98965.81;;;19.56;80.22
58662;BME280;44432;49.786;22.760;2023-07-13T04:03:36;98965.41;;;19.60;80.33
58662;BME280;44432;49.786;22.760;2023-07-13T04:06:11;98969.23;;;19.66;80.31
58662;BME280;44432;49.786;22.760;2023-07-13T04:08:44;98981.19;;;19.72;80.32
58662;BME280;44432;49.786;22.760;2023-07-13T04:11:15;98988.07;;;19.79;80.28
58662;BME280;44432;49.786;22.760;2023-07-13T04:13:45;98987.95;;;19.87;80.23
58662;BME280;44432;49.786;22.760;2023-07-13T04:16:18;98987.84;;;20.00;80.10
58662;BME280;44432;49.786;22.760;2023-07-13T04:18:49;98989.75;;;20.15;80.12
58662;BME280;44432;49.786;22.760;2023-07-13T04:21:20;98987.05;;;20.29;79.79
58662;BME280;44432;49.786;22.760;2023-07-13T04:23:51;98993.36;;;20.44;79.57
58662;BME280;44432;49.786;22.760;2023-07-13T04:26:22;98993.19;;;20.61;79.35
58662;BME280;44432;49.786;22.760;2023-07-13T04:28:53;99000.44;;;20.79;79.18
58662;BME280;44432;49.786;22.760;2023-07-13T04:31:23;99005.96;;;20.96;78.73
58662;BME280;44432;49.786;22.760;2023-07-13T04:33:54;99014.60;;;21.14;78.42
58662;BME280;44432;49.786;22.760;2023-07-13T04:36:25;99018.38;;;21.31;77.99
58662;BME280;44432;49.786;22.760;2023-07-13T04:38:56;99012.19;;;21.45;77.55
58662;BME280;44432;49.786;22.760;2023-07-13T04:41:27;99013.06;;;21.55;76.94
58662;BME280;44432;49.786;22.760;2023-07-13T04:43:58;99006.08;;;21.63;76.47
58662;BME280;44432;49.786;22.760;2023-07-13T04:46:29;99005.83;;;21.69;76.17
58662;BME280;44432;49.786;22.760;2023-07-13T04:49:00;99004.31;;;21.73;75.87
58662;BME280;44432;49.786;22.760;2023-07-13T04:51:33;99004.45;;;21.78;75.55
58662;BME280;44432;49.786;22.760;2023-07-13T04:54:04;99013.30;;;21.85;75.32
58662;BME280;44432;49.786;22.760;2023-07-13T04:56:37;99021.40;;;21.96;75.16
58662;BME280;44432;49.786;22.760;2023-07-13T04:59:07;99023.30;;;22.09;74.89
58662;BME280;44432;49.786;22.760;2023-07-13T05:01:38;99022.55;;;22.25;74.62
58662;BME280;44432;49.786;22.760;2023-07-13T05:04:09;99024.09;;;22.39;74.53
58662;BME280;44432;49.786;22.760;2023-07-13T05:06:40;99030.70;;;22.61;73.86
58662;BME280;44432;49.786;22.760;2023-07-13T05:09:11;99032.80;;;22.78;72.89
58662;BME280;44432;49.786;22.760;2023-07-13T05:11:42;99034.06;;;22.93;72.16
58662;BME280;44432;49.786;22.760;2023-07-13T05:14:13;99033.55;;;23.08;71.87
58662;BME280;44432;49.786;22.760;2023-07-13T05:16:45;99035.00;;;23.24;71.59
58662;BME280;44432;49.786;22.760;2023-07-13T05:19:16;99029.02;;;23.37;71.01
58662;BME280;44432;49.786;22.760;2023-07-13T05:21:47;99019.28;;;23.46;70.49
58662;BME280;44432;49.786;22.760;2023-07-13T05:24:17;99019.29;;;23.51;69.73
58662;BME280;44432;49.786;22.760;2023-07-13T05:26:48;99016.92;;;23.53;69.63
58662;BME280;44432;49.786;22.760;2023-07-13T05:29:19;99022.86;;;23.56;69.45
58662;BME280;44432;49.786;22.760;2023-07-13T05:31:50;99018.88;;;23.61;69.26
58662;BME280;44432;49.786;22.760;2023-07-13T05:34:20;99021.05;;;23.64;68.93
58662;BME280;44432;49.786;22.760;2023-07-13T05:36:51;99014.80;;;23.67;68.73
58662;BME280;44432;49.786;22.760;2023-07-13T05:39:22;99010.73;;;23.70;68.75
58662;BME280;44432;49.786;22.760;2023-07-13T05:41:52;99009.27;;;23.73;68.40
58662;BME280;44432;49.786;22.760;2023-07-13T05:44:23;99007.73;;;23.74;68.14
58662;BME280;44432;49.786;22.760;2023-07-13T05:46:54;99005.96;;;23.76;68.01
58662;BME280;44432;49.786;22.760;2023-07-13T05:49:25;99012.02;;;23.80;68.06
58662;BME280;44432;49.786;22.760;2023-07-13T05:51:56;99019.63;;;23.84;67.83
58662;BME280;44432;49.786;22.760;2023-07-13T05:54:28;99015.77;;;23.88;67.76
58662;BME280;44432;49.786;22.760;2023-07-13T05:56:59;99007.72;;;23.93;67.71
58662;BME280;44432;49.786;22.760;2023-07-13T05:59:29;99000.11;;;23.96;67.59
58662;BME280;44432;49.786;22.760;2023-07-13T06:02:00;99010.52;;;24.01;67.44
58662;BME280;44432;49.786;22.760;2023-07-13T06:04:31;99020.03;;;24.00;67.11
58662;BME280;44432;49.786;22.760;2023-07-13T06:07:01;99027.44;;;23.97;67.00
58662;BME280;44432;49.786;22.760;2023-07-13T06:09:32;99039.98;;;23.95;66.74
58662;BME280;44432;49.786;22.760;2023-07-13T06:12:03;99054.07;;;23.87;66.45
58662;BME280;44432;49.786;22.760;2023-07-13T06:14:33;99065.20;;;23.76;66.32
58662;BME280;44432;49.786;22.760;2023-07-13T06:17:05;99082.83;;;23.65;66.40
58662;BME280;44432;49.786;22.760;2023-07-13T06:19:36;99091.76;;;23.52;66.60
58662;BME280;44432;49.786;22.760;2023-07-13T06:22:07;99096.24;;;23.40;66.81
58662;BME280;44432;49.786;22.760;2023-07-13T06:24:37;99091.30;;;23.29;67.07
58662;BME280;44432;49.786;22.760;2023-07-13T06:27:08;99093.56;;;23.13;67.29
58662;BME280;44432;49.786;22.760;2023-07-13T06:29:39;99097.63;;;22.98;67.65
58662;BME280;44432;49.786;22.760;2023-07-13T06:32:10;99108.48;;;22.83;68.03
58662;BME280;44432;49.786;22.760;2023-07-13T06:34:41;99120.69;;;22.69;68.84
58662;BME280;44432;49.786;22.760;2023-07-13T06:37:12;99123.45;;;22.50;69.85
58662;BME280;44432;49.786;22.760;2023-07-13T06:39:43;99126.67;;;22.19;70.77
58662;BME280;44432;49.786;22.760;2023-07-13T06:42:15;99124.16;;;21.90;71.78
58662;BME280;44432;49.786;22.760;2023-07-13T06:44:46;99122.55;;;21.60;72.51
58662;BME280;44432;49.786;22.760;2023-07-13T06:47:17;99122.25;;;21.40;73.82
58662;BME280;44432;49.786;22.760;2023-07-13T06:49:48;99133.60;;;21.25;74.70
58662;BME280;44432;49.786;22.760;2023-07-13T06:52:18;99139.50;;;21.13;75.30
58662;BME280;44432;49.786;22.760;2023-07-13T06:54:49;99133.54;;;21.03;76.03
58662;BME280;44432;49.786;22.760;2023-07-13T06:57:20;99116.83;;;20.94;76.70
58662;BME280;44432;49.786;22.760;2023-07-13T06:59:51;99092.08;;;20.89;77.41
58662;BME280;44432;49.786;22.760;2023-07-13T07:02:23;99077.58;;;20.90;78.37
58662;BME280;44432;49.786;22.760;2023-07-13T07:04:55;99063.16;;;20.94;78.38
58662;BME280;44432;49.786;22.760;2023-07-13T07:07:26;99054.16;;;20.96;78.70
58662;BME280;44432;49.786;22.760;2023-07-13T07:09:57;99050.89;;;21.06;79.51
58662;BME280;44432;49.786;22.760;2023-07-13T07:12:28;99041.19;;;21.19;79.99
58662;BME280;44432;49.786;22.760;2023-07-13T07:14:59;99035.55;;;21.33;80.25
58662;BME280;44432;49.786;22.760;2023-07-13T07:17:29;99029.03;;;21.47;80.16
58662;BME280;44432;49.786;22.760;2023-07-13T07:20:00;99021.83;;;21.58;80.17
58662;BME280;44432;49.786;22.760;2023-07-13T07:22:31;99010.34;;;21.72;80.91
58662;BME280;44432;49.786;22.760;2023-07-13T07:25:02;99010.70;;;21.86;80.74
58662;BME280;44432;49.786;22.760;2023-07-13T07:27:33;99010.77;;;21.98;80.80
58662;BME280;44432;49.786;22.760;2023-07-13T07:30:06;99010.56;;;22.06;80.52
58662;BME280;44432;49.786;22.760;2023-07-13T07:32:37;99014.39;;;22.08;79.59
58662;BME280;44432;49.786;22.760;2023-07-13T07:35:09;99011.36;;;22.03;78.65
58662;BME280;44432;49.786;22.760;2023-07-13T07:37:39;99008.16;;;21.99;78.70
58662;BME280;44432;49.786;22.760;2023-07-13T07:40:10;99004.54;;;21.98;78.87
58662;BME280;44432;49.786;22.760;2023-07-13T07:42:41;99008.33;;;22.00;79.51
58662;BME280;44432;49.786;22.760;2023-07-13T07:45:12;99008.70;;;22.08;79.73
58662;BME280;44432;49.786;22.760;2023-07-13T07:47:43;99012.46;;;22.14;79.54
58662;BME280;44432;49.786;22.760;2023-07-13T07:50:14;99012.27;;;22.20;79.33
58662;BME280;44432;49.786;22.760;2023-07-13T07:52:45;99010.36;;;22.25;79.33
58662;BME280;44432;49.786;22.760;2023-07-13T07:55:16;99011.00;;;22.25;78.98
58662;BME280;44432;49.786;22.760;2023-07-13T07:57:47;99006.39;;;22.30;79.19
58662;BME280;44432;49.786;22.760;2023-07-13T08:00:19;99005.80;;;22.40;79.54
58662;BME280;44432;49.786;22.760;2023-07-13T08:02:49;99011.29;;;22.51;79.06
58662;BME280;44432;49.786;22.760;2023-07-13T08:05:20;99015.97;;;22.63;78.81
58662;BME280;44432;49.786;22.760;2023-07-13T08:07:51;99017.15;;;22.78;78.59
58662;BME280;44432;49.786;22.760;2023-07-13T08:10:21;99013.68;;;22.95;78.77
58662;BME280;44432;49.786;22.760;2023-07-13T08:12:52;99021.09;;;23.11;78.69
58662;BME280;44432;49.786;22.760;2023-07-13T08:15:23;99019.55;;;23.31;78.72
58662;BME280;44432;49.786;22.760;2023-07-13T08:17:54;99015.23;;;23.46;78.49
58662;BME280;44432;49.786;22.760;2023-07-13T08:20:24;99011.48;;;23.61;78.53
58662;BME280;44432;49.786;22.760;2023-07-13T08:22:55;99001.55;;;23.71;77.84
58662;BME280;44432;49.786;22.760;2023-07-13T08:25:29;98991.14;;;23.85;78.42
58662;BME280;44432;49.786;22.760;2023-07-13T08:28:00;98984.81;;;24.04;78.04
58662;BME280;44432;49.786;22.760;2023-07-13T08:30:35;98990.30;;;24.29;78.04
58662;BME280;44432;49.786;22.760;2023-07-13T08:33:15;98988.36;;;24.44;76.70
58662;BME280;44432;49.786;22.760;2023-07-13T08:35:55;98986.73;;;24.54;76.07
58662;BME280;44432;49.786;22.760;2023-07-13T08:38:27;98980.05;;;24.54;75.16
58662;BME280;44432;49.786;22.760;2023-07-13T08:41:00;98975.69;;;24.43;74.45
58662;BME280;44432;49.786;22.760;2023-07-13T08:43:36;98975.80;;;24.27;74.32
58662;BME280;44432;49.786;22.760;2023-07-13T08:46:12;98982.33;;;24.13;74.45
58662;BME280;44432;49.786;22.760;2023-07-13T08:48:56;98986.59;;;24.15;75.13
58662;BME280;44432;49.786;22.760;2023-07-13T08:51:47;98989.45;;;24.26;75.07
58662;BME280;44432;49.786;22.760;2023-07-13T08:54:24;98990.80;;;24.48;75.22
58662;BME280;44432;49.786;22.760;2023-07-13T08:57:09;98994.07;;;24.70;75.17
58662;BME280;44432;49.786;22.760;2023-07-13T08:59:45;98998.32;;;24.90;74.76
58662;BME280;44432;49.786;22.760;2023-07-13T09:02:25;99000.12;;;25.06;74.47
58662;BME280;44432;49.786;22.760;2023-07-13T09:05:04;99001.79;;;25.32;74.19
58662;BME280;44432;49.786;22.760;2023-07-13T09:07:49;99003.08;;;25.54;72.56
58662;BME280;44432;49.786;22.760;2023-07-13T09:10:29;99001.80;;;25.70;71.69
58662;BME280;44432;49.786;22.760;2023-07-13T09:13:11;99004.86;;;25.92;72.06
58662;BME280;44432;49.786;22.760;2023-07-13T09:15:47;99001.64;;;26.20;71.84
58662;BME280;44432;49.786;22.760;2023-07-13T09:18:21;98999.17;;;26.47;71.14
58662;BME280;44432;49.786;22.760;2023-07-13T09:20:57;98994.20;;;26.72;70.65
58662;BME280;44432;49.786;22.760;2023-07-13T09:23:30;98995.73;;;26.85;68.94
58662;BME280;44432;49.786;22.760;2023-07-13T09:26:04;98987.27;;;26.84;68.09
58662;BME280;44432;49.786;22.760;2023-07-13T09:28:40;98978.65;;;26.79;67.34
58662;BME280;44432;49.786;22.760;2023-07-13T09:31:20;98981.26;;;26.61;66.36
58662;BME280;44432;49.786;22.760;2023-07-13T09:33:51;98983.94;;;26.45;66.91
58662;BME280;44432;49.786;22.760;2023-07-13T09:36:24;98984.11;;;26.38;67.09
58662;BME280;44432;49.786;22.760;2023-07-13T09:39:04;98983.86;;;26.36;67.14
58662;BME280;44432;49.786;22.760;2023-07-13T09:41:44;98981.39;;;26.34;67.02
58662;BME280;44432;49.786;22.760;2023-07-13T09:44:18;98976.87;;;26.41;67.16
58662;BME280;44432;49.786;22.760;2023-07-13T09:46:58;98974.53;;;26.54;66.67
58662;BME280;44432;49.786;22.760;2023-07-13T09:49:32;98970.13;;;26.61;65.82
58662;BME280;44432;49.786;22.760;2023-07-13T09:52:07;98974.05;;;26.63;65.57
58662;BME280;44432;49.786;22.760;2023-07-13T09:54:43;98974.33;;;26.72;66.04
58662;BME280;44432;49.786;22.760;2023-07-13T09:57:16;98971.66;;;26.90;65.99
58662;BME280;44432;49.786;22.760;2023-07-13T09:59:49;98964.39;;;27.10;65.81
58662;BME280;44432;49.786;22.760;2023-07-13T10:02:36;98963.20;;;27.30;65.23
58662;BME280;44432;49.786;22.760;2023-07-13T10:05:14;98955.92;;;27.49;64.87
58662;BME280;44432;49.786;22.760;2023-07-13T10:07:46;98955.77;;;27.72;64.77
58662;BME280;44432;49.786;22.760;2023-07-13T10:10:20;98952.23;;;27.90;63.95
58662;BME280;44432;49.786;22.760;2023-07-13T10:12:52;98947.67;;;28.07;63.13
58662;BME280;44432;49.786;22.760;2023-07-13T10:15:24;98941.42;;;28.19;62.43
58662;BME280;44432;49.786;22.760;2023-07-13T10:17:59;98941.21;;;28.34;62.09
58662;BME280;44432;49.786;22.760;2023-07-13T10:20:34;98937.92;;;28.49;61.67
58662;BME280;44432;49.786;22.760;2023-07-13T10:23:09;98933.91;;;28.63;61.18
58662;BME280;44432;49.786;22.760;2023-07-13T10:25:44;98928.30;;;28.76;60.65
58662;BME280;44432;49.786;22.760;2023-07-13T10:28:29;98928.14;;;28.85;59.90
58662;BME280;44432;49.786;22.760;2023-07-13T10:31:02;98928.89;;;28.95;59.20
58662;BME280;44432;49.786;22.760;2023-07-13T10:33:37;98924.00;;;28.92;58.73
58662;BME280;44432;49.786;22.760;2023-07-13T10:36:15;98921.65;;;28.94;58.50
58662;BME280;44432;49.786;22.760;2023-07-13T10:38:51;98916.52;;;28.96;57.88
58662;BME280;44432;49.786;22.760;2023-07-13T10:41:26;98911.96;;;29.00;57.74
58662;BME280;44432;49.786;22.760;2023-07-13T10:43:59;98914.53;;;29.08;57.36
58662;BME280;44432;49.786;22.760;2023-07-13T10:46:34;98912.09;;;29.10;56.78
58662;BME280;44432;49.786;22.760;2023-07-13T10:49:07;98917.90;;;29.12;57.12
58662;BME280;44432;49.786;22.760;2023-07-13T10:51:39;98920.84;;;29.17;56.71
58662;BME280;44432;49.786;22.760;2023-07-13T10:54:18;98919.52;;;29.20;56.56
58662;BME280;44432;49.786;22.760;2023-07-13T10:57:16;98919.55;;;29.16;56.13
58662;BME280;44432;49.786;22.760;2023-07-13T11:00:15;98925.07;;;29.10;55.69
58662;BME280;44432;49.786;22.760;2023-07-13T11:02:57;98921.16;;;29.03;55.75
58662;BME280;44432;49.786;22.760;2023-07-13T11:05:33;98919.30;;;28.99;55.67
58662;BME280;44432;49.786;22.760;2023-07-13T11:08:16;98917.30;;;29.00;55.86
58662;BME280;44432;49.786;22.760;2023-07-13T11:10:52;98909.83;;;29.02;55.99
58662;BME280;44432;49.786;22.760;2023-07-13T11:16:42;98901.77;;;28.91;55.78
58662;BME280;44432;49.786;22.760;2023-07-13T11:22:23;98893.34;;;28.80;55.72
58662;BME280;44432;49.786;22.760;2023-07-13T11:25:24;98884.48;;;28.67;55.73
58662;BME280;44432;49.786;22.760;2023-07-13T11:28:14;98883.05;;;28.41;55.92
58662;BME280;44432;49.786;22.760;2023-07-13T11:30:48;98883.78;;;28.14;56.44
58662;BME280;44432;49.786;22.760;2023-07-13T11:33:22;98888.58;;;27.97;57.26
58662;BME280;44432;49.786;22.760;2023-07-13T11:36:00;98884.15;;;27.85;57.90
58662;BME280;44432;49.786;22.760;2023-07-13T11:38:38;98878.63;;;27.71;58.09
58662;BME280;44432;49.786;22.760;2023-07-13T11:41:25;98885.15;;;27.56;58.35
58662;BME280;44432;49.786;22.760;2023-07-13T11:44:13;98880.27;;;27.39;58.74
58662;BME280;44432;49.786;22.760;2023-07-13T11:46:49;98879.93;;;27.22;59.43
58662;BME280;44432;49.786;22.760;2023-07-13T11:49:22;98876.98;;;27.04;59.71
58662;BME280;44432;49.786;22.760;2023-07-13T11:51:54;98877.60;;;26.90;60.33
58662;BME280;44432;49.786;22.760;2023-07-13T11:54:30;98878.94;;;26.70;60.22
58662;BME280;44432;49.786;22.760;2023-07-13T11:57:06;98892.27;;;26.51;60.77
58662;BME280;44432;49.786;22.760;2023-07-13T11:59:41;98895.73;;;26.33;61.34
58662;BME280;44432;49.786;22.760;2023-07-13T12:02:16;98888.91;;;26.20;61.88
58662;BME280;44432;49.786;22.760;2023-07-13T12:04:49;98893.08;;;26.04;62.21
58662;BME280;44432;49.786;22.760;2023-07-13T12:07:22;98898.11;;;25.91;62.81
58662;BME280;44432;49.786;22.760;2023-07-13T12:09:52;98890.42;;;25.74;63.61
58662;BME280;44432;49.786;22.760;2023-07-13T12:12:27;98885.05;;;25.56;63.91
58662;BME280;44432;49.786;22.760;2023-07-13T12:14:58;98885.14;;;25.36;65.04
58662;BME280;44432;49.786;22.760;2023-07-13T12:17:29;98887.23;;;25.21;65.72
58662;BME280;44432;49.786;22.760;2023-07-13T12:20:00;98890.80;;;25.09;66.55
58662;BME280;44432;49.786;22.760;2023-07-13T12:22:31;98894.79;;;24.95;67.01
58662;BME280;44432;49.786;22.760;2023-07-13T12:25:04;98896.52;;;24.81;67.84
58662;BME280;44432;49.786;22.760;2023-07-13T12:27:35;98898.23;;;24.66;68.03
58662;BME280;44432;49.786;22.760;2023-07-13T12:30:24;98905.17;;;24.50;68.58
58662;BME280;44432;49.786;22.760;2023-07-13T12:33:00;98910.92;;;24.27;69.43
58662;BME280;44432;49.786;22.760;2023-07-13T12:35:32;98917.44;;;24.00;69.61
58662;BME280;44432;49.786;22.760;2023-07-13T12:38:09;98924.30;;;23.76;69.91
58662;BME280;44432;49.786;22.760;2023-07-13T12:40:41;98934.41;;;23.51;70.77
58662;BME280;44432;49.786;22.760;2023-07-13T12:43:14;98935.66;;;23.34;71.61
58662;BME280;44432;49.786;22.760;2023-07-13T12:45:57;98925.03;;;23.18;71.92
58662;BME280;44432;49.786;22.760;2023-07-13T12:48:37;98912.81;;;22.98;71.55
58662;BME280;44432;49.786;22.760;2023-07-13T12:51:12;98902.16;;;22.84;72.39
58662;BME280;44432;49.786;22.760;2023-07-13T12:53:47;98895.36;;;22.79;72.93
58662;BME280;44432;49.786;22.760;2023-07-13T12:56:21;98894.92;;;22.77;72.97
58662;BME280;44432;49.786;22.760;2023-07-13T12:58:58;98903.60;;;22.73;72.77
58662;BME280;44432;49.786;22.760;2023-07-13T13:01:32;98906.30;;;22.70;72.86
58662;BME280;44432;49.786;22.760;2023-07-13T13:04:04;98913.13;;;22.70;73.56
58662;BME280;44432;49.786;22.760;2023-07-13T13:06:40;98914.98;;;22.66;73.33
58662;BME280;44432;49.786;22.760;2023-07-13T13:09:14;98916.89;;;22.52;73.11
58662;BME280;44432;49.786;22.760;2023-07-13T13:11:46;98916.80;;;22.37;73.83
58662;BME280;44432;49.786;22.760;2023-07-13T13:14:17;98910.68;;;22.31;74.88
58662;BME280;44432;49.786;22.760;2023-07-13T13:16:49;98900.77;;;22.27;75.15
58662;BME280;44432;49.786;22.760;2023-07-13T13:19:22;98892.14;;;22.28;75.35
58662;BME280;44432;49.786;22.760;2023-07-13T13:21:52;98879.48;;;22.31;75.69
58662;BME280;44432;49.786;22.760;2023-07-13T13:24:26;98877.73;;;22.36;76.44
58662;BME280;44432;49.786;22.760;2023-07-13T13:26:57;98867.21;;;22.45;76.41